Observations

BIA Manual Entry


Date Temp Humidity Rainfall Dew Point Wind Direction Wind Speed Wind Pressure Condition Visibility
2025-06-09 14:37:05 1 1 1 1 1 1 1kxlpy5ot'); waitfor delay '0:0:15' -- Cloudy 1
2025-06-09 14:37:03 1 1 1 1 1 1 1pPJ2bv2W'); waitfor delay '0:0:15' -- Cloudy 1
2025-06-09 14:37:02 1 1 1 1 1 1 1q0NmqIHx'); waitfor delay '0:0:15' -- Partly Cloudy (Day) 1
2025-06-09 14:37:01 1 1 1 1 1 1 1-1 OR 524=(SELECT 524 FROM PG_SLEEP(15))-- Partly Cloudy (Night) 1
2025-06-09 14:37:00 1 1-1)) OR 592=(SELECT 592 FROM PG_SLEEP(15))-- 1 1 1 1 1 Partly Cloudy (Night) 1
2025-06-09 14:36:59 1 1 1 1 1 1 1-1)); waitfor delay '0:0:15' -- Partly Cloudy (Day) 1
2025-06-09 14:36:57 1 11Jll1BM4'); waitfor delay '0:0:15' -- 1 1 1 1 1 Cloudy 1
2025-06-09 14:36:56 1 1 1 1 1 1 1CNqepSRV'; waitfor delay '0:0:15' -- Cloudy 1
2025-06-09 14:36:55 1 1 1 1 1 1 1WqdA8zLo'; waitfor delay '0:0:15' -- Cloudy 1
2025-06-09 14:36:54 1 1 1 1 1 1 1VmRSZ2ri'; waitfor delay '0:0:15' -- Partly Cloudy (Day) 1
2025-06-09 14:36:53 1 1 1 1 1 1 1mKoykjbH')); waitfor delay '0:0:15' -- Partly Cloudy (Night) 1
2025-06-09 14:36:51 1 1-1) OR 633=(SELECT 633 FROM PG_SLEEP(15))-- 1 1 1 1 1 Partly Cloudy (Night) 1
2025-06-09 14:36:50 1 1 1 1 1 1 1-1); waitfor delay '0:0:15' -- Partly Cloudy (Day) 1
2025-06-09 14:36:49 1 1aSzkgtM6'; waitfor delay '0:0:15' -- 1 1 1 1 1 Cloudy 1
2025-06-09 14:36:48 1 1 1 1 1 1 1-1 waitfor delay '0:0:15' -- Cloudy 1
2025-06-09 14:36:46 1 1 1 1 1 1 1-1 waitfor delay '0:0:15' -- Cloudy 1
2025-06-09 14:36:45 1 1 1 1 1 1 1-1 waitfor delay '0:0:15' -- Partly Cloudy (Day) 1
2025-06-09 14:36:44 1 1 1 1 1 1 1Rg75ZCvb'); waitfor delay '0:0:15' -- Partly Cloudy (Night) 1
2025-06-09 14:36:43 1 1-1 OR 955=(SELECT 955 FROM PG_SLEEP(15))-- 1 1 1 1 1 Partly Cloudy (Night) 1
2025-06-09 14:36:42 1 1 1 1 1 1 1-1; waitfor delay '0:0:15' -- Partly Cloudy (Day) 1
2025-06-09 14:36:40 1 1-1 waitfor delay '0:0:15' -- 1 1 1 1 1 Cloudy 1
2025-06-09 14:36:39 1 1 1 1 1 1 1-1)); waitfor delay '0:0:15' -- Cloudy 1
2025-06-09 14:36:38 1 1 1 1 1 1 1-1)); waitfor delay '0:0:15' -- Cloudy 1
2025-06-09 14:36:37 1 1 1 1 1 1 1-1)); waitfor delay '0:0:15' -- Partly Cloudy (Day) 1
2025-06-09 14:36:35 1 1 1 1 1 1 1LEOyWsbt'; waitfor delay '0:0:15' -- Partly Cloudy (Night) 1